createdAt,value
2019-02-12T00:01:55.128Z,70.22
2019-02-12T00:04:26.361Z,70.86
2019-02-12T00:06:56.794Z,70.23
2019-02-12T00:09:27.303Z,71.29
2019-02-12T00:11:57.738Z,71.58
2019-02-12T00:14:28.474Z,71.22
2019-02-12T00:16:58.938Z,71.25
2019-02-12T00:19:29.367Z,70.27
2019-02-12T00:21:59.853Z,70.71
2019-02-12T00:24:31.215Z,71.06
2019-02-12T00:27:02.003Z,71.35
2019-02-12T00:29:32.461Z,71.17
2019-02-12T00:32:02.890Z,70.03
2019-02-12T00:34:34.304Z,70.90
2019-02-12T00:37:05.020Z,70.20
2019-02-12T00:39:35.458Z,70.72
2019-02-12T00:42:06.105Z,71.22
2019-02-12T00:44:36.542Z,70.77
2019-02-12T00:47:07.013Z,71.20
2019-02-12T00:49:37.442Z,71.40
2019-02-12T00:52:07.907Z,71.39
2019-02-12T00:54:38.759Z,71.53
2019-02-12T00:57:09.189Z,71.18
2019-02-12T00:59:39.666Z,71.51
2019-02-12T01:02:10.372Z,72.07
2019-02-12T01:04:40.814Z,71.90
2019-02-12T01:07:11.538Z,72.37
2019-02-12T01:09:42.002Z,72.73
2019-02-12T01:12:13.361Z,71.99
2019-02-12T01:14:44.126Z,72.82
2019-02-12T01:17:14.736Z,73.13
2019-02-12T01:19:45.199Z,73.38
2019-02-12T01:22:15.625Z,73.76
2019-02-12T01:24:46.117Z,73.41
2019-02-12T01:27:16.536Z,74.02
2019-02-12T01:29:47.311Z,73.22
2019-02-12T01:32:18.112Z,73.18
2019-02-12T01:34:48.548Z,73.83
2019-02-12T01:37:19.020Z,73.45
2019-02-12T01:39:49.458Z,74.27
2019-02-12T01:42:19.900Z,73.74
2019-02-12T01:44:50.736Z,73.95
2019-02-12T01:47:21.174Z,73.78
2019-02-12T01:49:51.649Z,73.17
2019-02-12T01:52:22.414Z,73.58
2019-02-12T01:54:52.858Z,73.80
2019-02-12T01:57:23.326Z,73.41
2019-02-12T01:59:54.504Z,73.12
2019-02-12T02:02:24.981Z,72.66
2019-02-12T02:04:55.775Z,72.88
2019-02-12T02:07:26.209Z,72.57
2019-02-12T02:09:56.698Z,72.82
2019-02-12T02:12:27.226Z,73.00
2019-02-12T02:14:57.704Z,72.03
2019-02-12T02:17:28.458Z,72.86
2019-02-12T02:19:58.888Z,72.51
2019-02-12T02:22:29.346Z,72.58
2019-02-12T02:24:59.781Z,72.91
2019-02-12T02:27:30.262Z,72.82
2019-02-12T02:30:01.021Z,73.36
2019-02-12T02:32:31.451Z,73.71
2019-02-12T02:35:02.294Z,73.67
2019-02-12T02:37:32.724Z,74.37
2019-02-12T02:40:03.222Z,74.33
2019-02-12T02:42:33.650Z,74.61
2019-02-12T02:45:04.189Z,74.63
2019-02-12T02:47:34.647Z,74.03
2019-02-12T02:50:05.521Z,74.21
2019-02-12T02:52:36.004Z,74.87
2019-02-12T02:55:06.886Z,75.15
2019-02-12T02:57:37.999Z,74.78
2019-02-12T03:00:09.456Z,75.16
2019-02-12T03:02:39.893Z,75.25
2019-02-12T03:05:11.259Z,75.51
2019-02-12T03:07:41.702Z,75.58
2019-02-12T03:10:12.473Z,75.57
2019-02-12T03:12:43.289Z,76.08
2019-02-12T03:15:14.068Z,75.85
2019-02-12T03:17:44.589Z,75.54
2019-02-12T03:20:15.020Z,76.52
2019-02-12T03:22:46.178Z,76.99
2019-02-12T03:25:16.639Z,77.02
2019-02-12T03:27:47.110Z,77.08
2019-02-12T03:30:17.592Z,77.17
2019-02-12T03:32:48.031Z,77.15
2019-02-12T03:35:18.473Z,77.59
2019-02-12T03:37:49.265Z,78.13
2019-02-12T03:40:20.107Z,78.54
2019-02-12T03:42:50.675Z,78.91
2019-02-12T03:45:21.116Z,79.46
2019-02-12T03:47:51.822Z,80.09
2019-02-12T03:50:22.295Z,80.31
2019-02-12T03:52:52.740Z,80.42
2019-02-12T03:55:23.212Z,81.04
2019-02-12T03:57:53.641Z,80.46
2019-02-12T04:00:24.076Z,80.24
2019-02-12T04:03:05.328Z,80.32
2019-02-12T04:05:36.683Z,80.53
2019-02-12T04:08:07.454Z,80.82
2019-02-12T04:10:37.963Z,80.72
2019-02-12T04:13:08.389Z,80.85
2019-02-12T04:15:38.864Z,80.93
2019-02-12T04:18:09.636Z,81.21
2019-02-12T04:20:40.071Z,81.37
2019-02-12T04:23:10.918Z,81.24
2019-02-12T04:25:41.690Z,81.45
2019-02-12T04:28:12.173Z,81.63
2019-02-12T04:30:43.333Z,81.68
2019-02-12T04:33:13.786Z,82.32
2019-02-12T04:35:44.633Z,82.59
2019-02-12T04:38:15.177Z,82.46
2019-02-12T04:40:45.936Z,82.13
2019-02-12T04:43:16.670Z,82.12
2019-02-12T04:45:47.487Z,82.06
2019-02-12T04:48:18.380Z,81.96
2019-02-12T04:50:48.817Z,81.93
2019-02-12T04:53:19.257Z,82.35
2019-02-12T04:55:49.712Z,82.45
2019-02-12T04:58:20.181Z,81.97
2019-02-12T05:00:50.673Z,82.40
2019-02-12T05:03:21.106Z,82.55
2019-02-12T05:05:51.550Z,82.59
2019-02-12T05:08:22.015Z,82.62
2019-02-12T05:11:00.180Z,83.04
2019-02-12T05:13:31.049Z,83.31
2019-02-12T05:16:01.488Z,83.26
2019-02-12T05:18:31.943Z,83.39
2019-02-12T05:21:02.437Z,83.82
2019-02-12T05:23:34.331Z,83.91
2019-02-12T05:26:05.353Z,83.88
2019-02-12T05:28:36.175Z,84.53
2019-02-12T05:31:06.948Z,84.19
2019-02-12T05:33:37.433Z,84.13
2019-02-12T05:36:08.179Z,83.98
2019-02-12T05:38:38.612Z,84.24
2019-02-12T05:41:11.212Z,83.90
2019-02-12T05:43:41.233Z,83.73
2019-02-12T05:46:12.030Z,83.60
2019-02-12T05:48:42.862Z,83.49
2019-02-12T05:51:13.301Z,83.25
2019-02-12T05:53:43.772Z,82.84
2019-02-12T05:56:14.213Z,82.62
2019-02-12T05:58:44.745Z,82.52
2019-02-12T06:01:16.660Z,82.38
2019-02-12T06:03:47.451Z,82.16
2019-02-12T06:06:17.921Z,82.06
2019-02-12T06:08:49.340Z,82.33
2019-02-12T06:11:20.581Z,82.35
2019-02-12T06:13:51.410Z,82.13
2019-02-12T06:16:21.853Z,82.16
2019-02-12T06:18:52.321Z,82.66
2019-02-12T06:21:22.761Z,82.72
2019-02-12T06:23:53.326Z,83.20
2019-02-12T06:26:24.087Z,83.53
2019-02-12T06:28:54.512Z,83.54
2019-02-12T06:31:25.358Z,83.56
2019-02-12T06:33:55.883Z,83.63
2019-02-12T06:36:26.720Z,83.69
2019-02-12T06:38:57.532Z,83.74
2019-02-12T06:41:28.302Z,83.62
2019-02-12T06:43:58.732Z,84.20
2019-02-12T06:46:29.676Z,83.88
2019-02-12T06:49:00.355Z,83.98
2019-02-12T06:51:30.796Z,84.23
2019-02-12T06:54:02.789Z,84.25
2019-02-12T06:56:34.035Z,84.45
2019-02-12T06:59:04.481Z,84.48
2019-02-12T07:01:34.978Z,84.66
2019-02-12T07:04:26.116Z,84.79
2019-02-12T07:07:36.500Z,84.82
2019-02-12T07:10:12.394Z,84.88
2019-02-12T07:13:29.824Z,85.22
2019-02-12T07:16:38.333Z,85.39
2019-02-12T07:20:04.609Z,86.10
2019-02-12T07:23:05.373Z,86.40
2019-02-12T07:26:18.368Z,86.12
2019-02-12T07:29:08.246Z,86.69
2019-02-12T07:32:19.216Z,86.88
2019-02-12T07:35:33.888Z,86.89
2019-02-12T07:38:44.429Z,86.39
2019-02-12T07:41:56.483Z,86.02
2019-02-12T07:45:05.761Z,85.72
2019-02-12T07:48:05.978Z,85.82
2019-02-12T07:51:02.003Z,85.09
2019-02-12T07:54:21.077Z,85.07
2019-02-12T07:57:09.425Z,85.05
2019-02-12T08:00:11.519Z,84.52
2019-02-12T08:03:02.067Z,84.44
2019-02-12T08:06:12.867Z,84.25
2019-02-12T08:09:28.895Z,84.04
2019-02-12T08:12:22.289Z,84.46
2019-02-12T08:15:17.941Z,83.70
2019-02-12T08:18:14.473Z,83.39
2019-02-12T08:21:28.186Z,83.09
2019-02-12T08:25:00.810Z,83.48
2019-02-12T08:28:17.444Z,82.84
2019-02-12T08:31:32.312Z,82.76
2019-02-12T08:34:44.992Z,82.31
2019-02-12T08:37:41.174Z,81.24
2019-02-12T08:40:28.354Z,81.23
2019-02-12T08:43:27.427Z,81.83
2019-02-12T08:46:40.924Z,81.81
2019-02-12T08:49:46.960Z,81.55
2019-02-12T08:52:39.657Z,82.08
2019-02-12T08:55:36.841Z,82.34
2019-02-12T08:58:31.475Z,82.67
2019-02-12T09:02:04.350Z,81.99
2019-02-12T09:05:27.305Z,82.27
2019-02-12T09:08:04.340Z,82.73
2019-02-12T09:10:51.952Z,82.07
2019-02-12T09:14:08.389Z,82.48
2019-02-12T09:17:28.675Z,82.14
2019-02-12T09:20:42.875Z,82.48
2019-02-12T09:23:40.782Z,83.19
2019-02-12T09:26:20.068Z,82.46
2019-02-12T09:29:21.898Z,81.49
2019-02-12T09:32:42.382Z,82.08
2019-02-12T09:35:44.381Z,81.96
2019-02-12T09:38:41.113Z,81.87
2019-02-12T09:41:38.672Z,82.44
2019-02-12T09:44:48.544Z,81.81
2019-02-12T09:47:53.736Z,81.10
2019-02-12T09:50:58.843Z,81.11
2019-02-12T09:53:55.781Z,80.62
2019-02-12T09:57:07.300Z,80.54
2019-02-12T10:00:03.670Z,80.06
2019-02-12T10:03:17.909Z,79.46
2019-02-12T10:06:27.137Z,79.01
2019-02-12T10:09:50.738Z,79.13
2019-02-12T10:12:49.770Z,78.55
2019-02-12T10:15:42.310Z,78.93
2019-02-12T10:18:48.666Z,77.97
2019-02-12T10:21:51.927Z,77.69
2019-02-12T10:24:47.101Z,77.75
2019-02-12T10:27:51.125Z,76.79
2019-02-12T10:30:43.973Z,76.81
2019-02-12T10:33:15.951Z,76.32
2019-02-12T10:35:46.821Z,75.57
2019-02-12T10:38:17.751Z,76.01
2019-02-12T10:40:48.324Z,76.00
2019-02-12T10:43:19.177Z,76.76
2019-02-12T10:45:49.697Z,76.09
2019-02-12T10:48:20.138Z,75.32
2019-02-12T10:50:50.947Z,75.59
2019-02-12T10:53:22.147Z,76.95
2019-02-12T10:55:53.647Z,76.71
2019-02-12T10:58:24.788Z,76.32
2019-02-12T11:00:55.269Z,76.72
2019-02-12T11:03:25.704Z,76.04
2019-02-12T11:05:56.146Z,76.25
2019-02-12T11:08:27.432Z,75.92
2019-02-12T11:10:57.890Z,75.94
2019-02-12T11:13:28.330Z,75.63
2019-02-12T11:15:59.005Z,75.72
2019-02-12T11:18:29.864Z,74.78
2019-02-12T11:21:00.308Z,75.39
2019-02-12T11:23:31.448Z,74.58
2019-02-12T11:26:01.883Z,75.46
2019-02-12T11:28:32.313Z,73.72
2019-02-12T11:31:03.497Z,73.91
2019-02-12T11:33:33.940Z,74.69
2019-02-12T11:36:04.381Z,73.75
2019-02-12T11:38:34.870Z,74.15
2019-02-12T11:41:05.411Z,73.85
2019-02-12T11:43:35.843Z,74.26
2019-02-12T11:46:06.341Z,74.38
2019-02-12T11:48:37.073Z,72.30
2019-02-12T11:51:07.526Z,71.98
2019-02-12T11:53:38.017Z,71.69
2019-02-12T11:56:08.768Z,72.39
2019-02-12T11:58:39.213Z,71.88
2019-02-12T12:01:14.042Z,72.26
2019-02-12T12:03:44.479Z,72.47
2019-02-12T12:06:15.472Z,71.81
2019-02-12T12:08:45.966Z,70.76
2019-02-12T12:11:16.960Z,70.27
2019-02-12T12:13:47.401Z,70.94
2019-02-12T12:16:17.933Z,69.99
2019-02-12T12:18:48.369Z,69.58
2019-02-12T12:21:18.810Z,70.16
2019-02-12T12:23:49.949Z,69.73
2019-02-12T12:26:20.380Z,68.83
2019-02-12T12:28:51.156Z,68.61
2019-02-12T12:31:21.993Z,68.07
2019-02-12T12:33:53.598Z,67.79
2019-02-12T12:36:24.036Z,67.52
2019-02-12T12:38:54.878Z,68.30
2019-02-12T12:41:25.311Z,68.39
2019-02-12T12:43:55.849Z,68.58
2019-02-12T12:46:26.354Z,68.34
2019-02-12T12:48:56.803Z,65.94
2019-02-12T12:51:27.278Z,65.50
2019-02-12T12:53:57.741Z,65.35
2019-02-12T12:56:28.507Z,65.42
2019-02-12T12:58:58.940Z,64.86
2019-02-12T13:01:29.441Z,65.44
2019-02-12T13:04:00.436Z,63.67
2019-02-12T13:06:30.876Z,63.82
2019-02-12T13:09:01.365Z,63.85
2019-02-12T13:11:32.194Z,62.68
2019-02-12T13:14:02.702Z,63.84
2019-02-12T13:16:33.574Z,63.56
2019-02-12T13:19:04.412Z,63.80
2019-02-12T13:21:34.855Z,65.06
2019-02-12T13:24:05.347Z,63.24
2019-02-12T13:26:37.335Z,63.27
2019-02-12T13:29:08.079Z,63.06
2019-02-12T13:31:39.464Z,61.08
2019-02-12T13:34:09.908Z,63.55
2019-02-12T13:36:40.355Z,64.27
2019-02-12T13:39:11.225Z,65.24
2019-02-12T13:41:42.367Z,65.48
2019-02-12T13:44:12.807Z,66.55
2019-02-12T13:46:43.692Z,65.48
2019-02-12T13:49:14.509Z,65.71
2019-02-12T13:51:44.948Z,65.98
2019-02-12T13:54:15.543Z,67.16
2019-02-12T13:56:45.979Z,66.28
2019-02-12T13:59:17.021Z,66.62
2019-02-12T14:01:47.852Z,66.34
2019-02-12T14:04:18.394Z,66.56
2019-02-12T14:06:49.125Z,67.58
2019-02-12T14:09:19.611Z,67.38
2019-02-12T14:11:50.522Z,67.54
2019-02-12T14:14:20.958Z,67.81
2019-02-12T14:16:51.453Z,68.32
2019-02-12T14:19:21.891Z,69.71
2019-02-12T14:21:52.729Z,69.70
2019-02-12T14:24:23.223Z,70.65
2019-02-12T14:26:53.673Z,71.43
2019-02-12T14:29:24.122Z,71.09
2019-02-12T14:31:54.974Z,71.32
2019-02-12T14:34:25.410Z,71.81
2019-02-12T14:36:56.230Z,72.04
2019-02-12T14:39:27.057Z,71.27
2019-02-12T14:41:57.501Z,72.20
2019-02-12T14:44:28.338Z,71.54
2019-02-12T14:46:59.161Z,70.78
2019-02-12T14:49:29.592Z,72.52
2019-02-12T14:52:00.036Z,71.38
2019-02-12T14:54:30.517Z,71.18
2019-02-12T14:57:00.952Z,69.75
2019-02-12T14:59:31.440Z,70.23
2019-02-12T15:02:01.879Z,70.70
2019-02-12T15:04:33.307Z,69.46
2019-02-12T15:07:03.809Z,69.12
2019-02-12T15:09:34.258Z,69.60
2019-02-12T15:12:04.700Z,68.23
2019-02-12T15:14:35.201Z,67.63
2019-02-12T15:17:05.969Z,68.40
2019-02-12T15:19:36.405Z,67.81
2019-02-12T15:22:07.092Z,68.73
2019-02-12T15:24:37.527Z,68.48
2019-02-12T15:27:07.957Z,68.92
2019-02-12T15:29:38.544Z,69.99
2019-02-12T15:32:08.983Z,69.89
2019-02-12T15:34:39.422Z,70.68
2019-02-12T15:37:09.903Z,71.15
2019-02-12T15:39:40.353Z,71.75
2019-02-12T15:42:10.794Z,71.78
2019-02-12T15:44:41.825Z,72.90
2019-02-12T15:47:12.968Z,73.26
2019-02-12T15:49:43.445Z,73.13
2019-02-12T15:52:15.537Z,73.74
2019-02-12T15:54:46.543Z,73.90
2019-02-12T15:57:17.000Z,74.12
2019-02-12T15:59:47.507Z,74.15
2019-02-12T16:02:18.725Z,74.54
2019-02-12T16:04:50.212Z,74.67
2019-02-12T16:07:22.441Z,75.01
2019-02-12T16:09:55.018Z,74.98
2019-02-12T16:12:28.517Z,75.60
2019-02-12T16:15:00.876Z,75.97
2019-02-12T16:17:31.525Z,75.67
2019-02-12T16:20:02.358Z,76.62
2019-02-12T16:22:32.836Z,76.53
2019-02-12T16:27:29.599Z,77.07
2019-02-12T16:30:01.151Z,77.54
2019-02-12T16:32:31.771Z,77.26
2019-02-12T16:35:04.277Z,77.44
2019-02-12T16:37:35.066Z,77.45
2019-02-12T16:40:06.622Z,77.60
2019-02-12T16:42:37.878Z,77.51
2019-02-12T16:45:11.677Z,77.69
2019-02-12T16:47:42.932Z,77.79
2019-02-12T16:50:13.882Z,78.34
2019-02-12T16:52:44.653Z,78.16
2019-02-12T16:55:15.259Z,78.29
2019-02-12T16:57:46.068Z,78.31
2019-02-12T17:00:17.213Z,78.18
2019-02-12T17:02:47.704Z,78.26
2019-02-12T17:05:19.033Z,78.25
2019-02-12T17:07:49.483Z,78.50
2019-02-12T17:10:20.270Z,78.69
2019-02-12T17:12:51.966Z,79.01
2019-02-12T17:15:22.399Z,78.82
2019-02-12T17:17:53.826Z,79.10
2019-02-12T17:20:24.285Z,79.13
2019-02-12T17:22:54.733Z,79.27
2019-02-12T17:25:25.724Z,79.28
2019-02-12T17:27:56.188Z,78.98
2019-02-12T17:30:26.648Z,79.01
2019-02-12T17:32:57.151Z,79.13
2019-02-12T17:35:28.369Z,79.22
2019-02-12T17:37:58.810Z,78.97
2019-02-12T17:40:30.034Z,79.20
2019-02-12T17:43:00.486Z,79.50
2019-02-12T17:45:30.925Z,79.27
2019-02-12T17:48:01.748Z,79.54
2019-02-12T17:50:32.994Z,79.74
2019-02-12T17:53:04.245Z,79.91
2019-02-12T17:55:34.753Z,80.19
2019-02-12T17:58:05.353Z,80.42
2019-02-12T18:00:39.723Z,80.43
2019-02-12T18:03:10.229Z,80.54
2019-02-12T18:05:42.256Z,80.90
2019-02-12T18:08:13.838Z,80.83
2019-02-12T18:10:44.334Z,81.06
2019-02-12T18:13:16.147Z,80.94
2019-02-12T18:15:49.737Z,81.24
2019-02-12T18:18:21.056Z,81.78
2019-02-12T18:20:51.519Z,81.64
2019-02-12T18:23:22.379Z,81.95
2019-02-12T18:25:53.244Z,81.74
2019-02-12T18:28:23.725Z,81.58
2019-02-12T18:30:54.615Z,82.03
2019-02-12T18:33:25.060Z,81.91
2019-02-12T18:35:57.221Z,82.13
2019-02-12T18:38:27.726Z,82.20
2019-02-12T18:40:58.179Z,82.14
2019-02-12T18:43:30.603Z,82.33
2019-02-12T18:46:01.386Z,82.23
2019-02-12T18:48:32.829Z,82.63
2019-02-12T18:51:04.695Z,82.59
2019-02-12T18:53:35.619Z,82.71
2019-02-12T18:56:06.655Z,82.63
2019-02-12T18:58:37.157Z,82.59
2019-02-12T19:01:07.614Z,82.36
2019-02-12T19:03:38.444Z,82.79
2019-02-12T19:06:09.297Z,83.39
2019-02-12T19:08:41.267Z,83.58
2019-02-12T19:11:12.531Z,83.61
2019-02-12T19:13:45.311Z,83.78
2019-02-12T19:16:22.173Z,83.88
2019-02-12T19:18:52.871Z,83.92
2019-02-12T19:21:24.587Z,84.19
2019-02-12T19:23:55.428Z,84.00
2019-02-12T19:26:25.916Z,84.02
2019-02-12T19:28:56.943Z,84.24
2019-02-12T19:31:27.753Z,83.97
2019-02-12T19:33:59.060Z,84.09
2019-02-12T19:36:30.171Z,84.38
2019-02-12T19:39:21.069Z,84.29
2019-02-12T19:41:51.646Z,84.25
2019-02-12T19:44:23.164Z,84.31
2019-02-12T19:46:53.836Z,84.26
2019-02-12T19:49:24.285Z,84.11
2019-02-12T19:51:54.789Z,84.04
2019-02-12T19:54:25.594Z,84.24
2019-02-12T19:56:58.351Z,83.90
2019-02-12T19:59:28.701Z,83.78
2019-02-12T20:02:02.477Z,83.67
2019-02-12T20:04:33.505Z,83.64
2019-02-12T20:07:04.333Z,83.64
2019-02-12T20:09:35.146Z,83.69
2019-02-12T20:12:05.660Z,83.68
2019-02-12T20:14:37.909Z,83.71
2019-02-12T20:17:10.506Z,83.50
2019-02-12T20:19:41.514Z,83.45
2019-02-12T20:22:13.587Z,83.34
2019-02-12T20:24:47.186Z,83.12
2019-02-12T20:27:20.620Z,83.26
2019-02-12T20:29:51.114Z,82.90
2019-02-12T20:32:21.590Z,82.93
2019-02-12T20:34:52.087Z,82.70
2019-02-12T20:37:25.677Z,82.54
2019-02-12T20:39:56.130Z,82.60
2019-02-12T20:42:37.419Z,82.33
2019-02-12T20:45:09.764Z,82.35
2019-02-12T20:47:40.631Z,82.38
2019-02-12T20:50:13.517Z,82.63
2019-02-12T20:52:44.325Z,82.71
2019-02-12T20:55:15.100Z,82.53
2019-02-12T20:57:45.918Z,82.80
2019-02-12T21:00:18.206Z,82.88
2019-02-12T21:02:49.450Z,83.06
2019-02-12T21:05:19.894Z,83.14
2019-02-12T21:07:50.359Z,83.14
2019-02-12T21:10:21.427Z,83.27
2019-02-12T21:12:52.264Z,83.24
2019-02-12T21:15:23.241Z,83.24
2019-02-12T21:17:54.044Z,83.31
2019-02-12T21:20:24.518Z,83.22
2019-02-12T21:22:55.068Z,83.48
2019-02-12T21:25:26.696Z,83.69
2019-02-12T21:27:57.588Z,83.76
2019-02-12T21:30:28.076Z,83.98
2019-02-12T21:32:58.876Z,84.18
2019-02-12T21:35:29.687Z,84.50
2019-02-12T21:38:00.822Z,84.60
2019-02-12T21:40:31.300Z,84.67
2019-02-12T21:43:01.779Z,84.83
2019-02-12T21:45:34.914Z,84.82
2019-02-12T21:48:06.164Z,84.73
2019-02-12T21:50:36.603Z,84.58
2019-02-12T21:53:07.086Z,84.61
2019-02-12T21:55:37.534Z,84.76
2019-02-12T21:58:08.036Z,84.76
2019-02-12T22:00:38.578Z,84.47
2019-02-12T22:03:09.024Z,84.31
2019-02-12T22:05:39.514Z,84.20
2019-02-12T22:08:09.954Z,84.00
2019-02-12T22:10:46.206Z,84.02
2019-02-12T22:13:12.955Z,84.36
2019-02-12T22:15:43.584Z,84.07
2019-02-12T22:18:14.069Z,84.03
2019-02-12T22:20:44.910Z,83.88
2019-02-12T22:23:15.442Z,83.73
2019-02-12T22:25:45.890Z,83.76
2019-02-12T22:28:16.765Z,83.83
2019-02-12T22:30:47.201Z,83.99
2019-02-12T22:33:17.991Z,83.95
2019-02-12T22:35:48.482Z,84.01
2019-02-12T22:38:18.936Z,83.72
2019-02-12T22:40:49.378Z,83.74
2019-02-12T22:43:19.878Z,83.78
2019-02-12T22:45:50.342Z,83.75
2019-02-12T22:48:20.840Z,83.91
2019-02-12T22:50:51.288Z,83.51
2019-02-12T22:53:22.140Z,83.38
2019-02-12T22:55:52.780Z,83.41
2019-02-12T22:58:23.611Z,83.36
2019-02-12T23:01:08.593Z,83.55
2019-02-12T23:03:39.457Z,83.71
2019-02-12T23:06:09.899Z,83.59
2019-02-12T23:08:41.709Z,83.59
2019-02-12T23:11:12.154Z,83.54
2019-02-12T23:13:43.518Z,83.48
2019-02-12T23:16:14.370Z,83.74
2019-02-12T23:18:44.952Z,83.60
2019-02-12T23:21:15.766Z,83.61
2019-02-12T23:23:46.218Z,83.64
2019-02-12T23:26:16.738Z,83.48
2019-02-12T23:28:47.187Z,83.94
2019-02-12T23:31:17.757Z,84.00
2019-02-12T23:33:48.383Z,84.11
2019-02-12T23:36:18.834Z,84.42
2019-02-12T23:38:49.308Z,84.79
2019-02-12T23:41:20.094Z,84.71
2019-02-12T23:43:51.285Z,84.42
2019-02-12T23:46:22.076Z,84.43
2019-02-12T23:48:52.515Z,84.68
2019-02-12T23:51:23.648Z,84.52
2019-02-12T23:53:54.098Z,84.77
2019-02-12T23:56:24.587Z,85.04
2019-02-12T23:58:55.046Z,84.85
